Accueil
METAR-TAF:

METAR-TAF

Aéroports :

Aéroport de Cherbourg - Maupertus

Cherbourg, France

latitude: 49-39N, longitude: 001-28W, altitude: 138 m

Observation

Le bulletin a été fait il y a 24 minutes, à 14:00 UTC
Vent 10 kt de sud
Température 11°C
Humidité 71%
Pression 1015 hPa
Visibilité 10 km ou plus
pas de nuages en-dessous de 1500 mètres et pas de cumulonimbus.

METAR: LFRC 241400Z AUTO 17010KT CAVOK 11/06 Q1015 TEMPO 18015G25KT

Heure: 15:24 (14:24 UTC)

Prévision

Le bulletin a été fait il y a 3 heures et 24 minutes, à 11:00 UTC
Prévision valable du 24 à 12 UTC au 24 à 21 UTC
Vent 10 kt de sud
Visibilité 10 km ou plus
pas de nuages en-dessous de 1500 mètres et pas de cumulonimbus.
Probabilité 30% :
Temporairement
du 24 à 12 UTC au 24 à 18 UTC
Vent 15 kt de sud avec des rafales jusqu'à 25 kt

TAF: LFRC 241100Z 2412/2421 18010KT CAVOK PROB30 TEMPO 2412/2418 18015G25KT

Observations et prévisions météorologiques de plus de 4000 aéroports (messages METAR et TAF).

Les stations disponibles sont représentées par des disques jaunes et rouges sur la carte.

Passer la souris dessus pour voir le nom de la station.

Cliquer dessus pour voir les observations et prévisions météorologiques.

Pour changer de carte: cliquez sur les boutons verts avec une croix noire pour zoomer, sur le bouton vert avec un tiret pour effectuer un zoom arrière, ou sur les flèches vertes pour les cartes adjacentes.


METAR-TAF: